This is the latest recevied weather packets stored in our database for station/object EC2UT-13. If no packets are shown the sender has not sent any weather packets the latest 10 day(s).
| Time | Temp. | Humidity | Pressure | Rain* | Wind** | Luminosity | Snow |
|---|---|---|---|---|---|---|---|
| 1777772418 | 14.44° C | 77% | 1016.8 hPa | 0 mm | - | - | - |
| 1777770617 | 13.89° C | 77% | 1017.2 hPa | 0 mm | - | - | - |
| 1777763417 | 13.89° C | 75% | 1018 hPa | 2.03 mm | - | - | - |
| 1777755617 | 14.44° C | 67% | 1017.9 hPa | 0 mm | - | - | - |
| 1777752617 | 14.44° C | 67% | 1017.4 hPa | 2.29 mm | - | - | - |
| 1777747237 | 13.33° C | 62% | 1017 hPa | 8.89 mm | - | - | - |
| 1777744216 | 18.89° C | 52% | 1015.4 hPa | 0 mm | - | - | - |
| 1777737616 | 18.89° C | 55% | 1016.8 hPa | 0.51 mm | - | - | - |
| 1777734637 | 19.44° C | 54% | 1017.1 hPa | 0.51 mm | - | - | - |
| 1777732217 | 20.56° C | 47% | 1017.2 hPa | 0 mm | - | - | - |
| 1777725018 | 22.22° C | 45% | 1018.7 hPa | 0 mm | - | - | - |
| 1777724437 | 22.22° C | 45% | 1018.9 hPa | 0 mm | - | - | - |
| 1777720859 | 20.56° C | 48% | 1019.8 hPa | 0 mm | - | - | - |
| 1777715418 | 18.89° C | 51% | 1021.2 hPa | 0 mm | - | - | - |
| 1777707618 | 16.67° C | 57% | 1021.8 hPa | 0 mm | - | - | - |
| 1777706418 | 16.67° C | 58% | 1021.9 hPa | 0 mm | - | - | - |
| 1777703417 | 15.56° C | 59% | 1021.9 hPa | 0 mm | - | - | - |
| 1777701017 | 15° C | 58% | 1022.2 hPa | 0 mm | - | - | - |
| 1777699838 | 15.56° C | 58% | 1022.3 hPa | 0 mm | - | - | - |
| 1777698658 | 15.56° C | 58% | 1022.2 hPa | 0 mm | - | - | - |
| 1777695017 | 15.56° C | 59% | 1022.1 hPa | 0 mm | - | - | - |
| 1777689617 | 15° C | 59% | 1022.3 hPa | 0 mm | - | - | - |
| 1777688417 | 15° C | 59% | 1022.4 hPa | 0 mm | - | - | - |
| 1777681817 | 15° C | 58% | 1022.6 hPa | 0 mm | - | - | - |
| 1777677617 | 15.56° C | 57% | 1022.8 hPa | 0 mm | - | - | - |
* Rain latest hour (hover to see other rain measurements)
** Current wind speed in m/s (hover to see current wind gust speed)